Time;durP1;ratioP1;P1;durP2;ratioP2;P2;SDS_P1;SDS_P2;PMS_P1;PMS_P2;Temp;Humidity;BMP_temperature;BMP_pressure;BME280_temperature;BME280_humidity;BME280_pressure;Samples;Min_cycle;Max_cycle;Signal;HPM_P1;HPM_P2
2021/10/20 00:00:53;;;;;;;4.85;2.95;;;;;;;18.88;59.48;101010.97;4835766;29;124000;-74
2021/10/20 00:03:21;;;;;;;3.97;2.65;;;;;;;18.88;59.30;101010.97;4833910;29;114699;-74
2021/10/20 00:05:48;;;;;;;3.40;2.33;;;;;;;18.88;59.50;101005.63;4831014;29;114551;-74
2021/10/20 00:08:15;;;;;;;3.60;2.45;;;;;;;18.88;59.18;101001.09;4831015;29;123671;-74
2021/10/20 00:10:42;;;;;;;4.40;2.78;;;;;;;18.89;59.40;100996.56;4834638;29;124174;-74
2021/10/20 00:13:09;;;;;;;3.28;2.60;;;;;;;18.89;59.41;100996.56;4834933;29;117826;-74
2021/10/20 00:15:37;;;;;;;4.35;2.40;;;;;;;18.91;59.29;100997.31;4834072;29;114960;-74
2021/10/20 00:18:04;;;;;;;5.80;2.58;;;;;;;18.92;59.12;100996.34;4834211;29;123832;-74
2021/10/20 00:20:31;;;;;;;4.97;2.40;;;;;;;18.91;59.01;100994.63;4830778;29;122673;-74
2021/10/20 00:22:58;;;;;;;4.88;2.80;;;;;;;18.93;59.06;100992.66;4834507;29;114493;-74
2021/10/20 00:25:28;;;;;;;3.92;2.63;;;;;;;18.94;59.10;100983.66;4834920;29;113730;-74
2021/10/20 00:27:56;;;;;;;3.53;2.40;;;;;;;18.95;59.10;100988.03;4830159;29;123005;-75
2021/10/20 00:30:23;;;;;;;5.47;2.60;;;;;;;18.96;58.87;100982.56;4836080;29;123574;-74
2021/10/20 00:32:50;;;;;;;5.47;2.47;;;;;;;18.98;58.93;100979.75;4836056;29;113480;-75
2021/10/20 00:35:17;;;;;;;5.43;2.47;;;;;;;18.99;58.81;100976.09;4835075;29;114034;-74
2021/10/20 00:37:44;;;;;;;3.65;2.80;;;;;;;18.99;58.82;100976.09;4834206;29;124046;-74
2021/10/20 00:40:12;;;;;;;4.60;2.80;;;;;;;19.01;58.68;100968.78;4832244;29;123766;-74
2021/10/20 00:42:39;;;;;;;5.00;2.67;;;;;;;19.01;58.60;100974.16;4834341;29;114518;-74
2021/10/20 00:45:07;;;;;;;3.88;2.50;;;;;;;19.01;58.46;100963.41;4833457;29;113848;-74
2021/10/20 00:47:35;;;;;;;4.97;2.92;;;;;;;19.01;58.41;100964.25;4835691;29;124697;-74
2021/10/20 00:50:08;;;;;;;4.60;2.30;;;;;;;19.01;58.32;100947.31;4834601;29;123893;-74
2021/10/20 00:52:36;;;;;;;3.28;2.30;;;;;;;19.02;58.43;100949.00;4832856;29;113439;-74
2021/10/20 00:55:05;;;;;;;4.60;2.38;;;;;;;19.03;58.26;100943.53;4834593;29;113376;-74
2021/10/20 00:57:32;;;;;;;4.55;2.33;;;;;;;19.02;58.26;100932.91;4830752;29;123840;-74
2021/10/20 01:00:04;;;;;;;3.20;2.47;;;;;;;19.04;58.21;100933.63;4832425;29;123976;-74
2021/10/20 01:02:31;;;;;;;4.20;2.38;;;;;;;19.04;58.22;100936.31;4846831;29;115149;-74
2021/10/20 01:04:58;;;;;;;3.95;2.40;;;;;;;19.04;58.19;100922.88;4849948;29;115001;-74
2021/10/20 01:07:25;;;;;;;4.40;2.35;;;;;;;19.04;57.98;100926.44;4834168;29;123807;-73
2021/10/20 01:09:53;;;;;;;5.95;2.38;;;;;;;19.05;58.10;100921.94;4832825;29;123741;-74
2021/10/20 01:12:21;;;;;;;4.97;2.63;;;;;;;19.05;58.07;100928.13;4834760;29;114042;-74
2021/10/20 01:14:48;;;;;;;4.03;2.60;;;;;;;19.05;57.89;100911.19;4834673;29;113006;-74
2021/10/20 01:17:15;;;;;;;4.05;2.75;;;;;;;19.06;57.81;100912.88;4835323;29;123777;-74
2021/10/20 01:19:43;;;;;;;3.72;2.22;;;;;;;19.05;57.96;100912.03;4837555;29;124789;-74
2021/10/20 01:22:11;;;;;;;4.20;2.72;;;;;;;19.05;57.70;100905.81;4837926;29;114253;-74
2021/10/20 01:24:38;;;;;;;5.20;2.50;;;;;;;19.04;57.99;100898.72;4834530;29;113527;-73
2021/10/20 01:27:07;;;;;;;4.95;2.45;;;;;;;19.04;57.91;100904.09;4834493;29;125003;-73
2021/10/20 01:29:34;;;;;;;3.40;2.25;;;;;;;19.04;57.75;100898.72;4835700;29;124281;-74
2021/10/20 01:32:05;;;;;;;3.20;2.35;;;;;;;19.04;57.75;100893.34;4833735;29;114498;-74
2021/10/20 01:34:34;;;;;;;4.53;2.47;;;;;;;19.04;57.70;100888.00;4834946;29;112129;-73
2021/10/20 01:37:04;;;;;;;3.60;2.50;;;;;;;19.05;57.63;100889.72;4834103;29;123624;-74
2021/10/20 01:39:32;;;;;;;3.63;2.50;;;;;;;19.05;57.62;100874.44;4835350;29;123678;-73
2021/10/20 01:42:00;;;;;;;3.75;2.15;;;;;;;19.06;57.37;100886.03;4833631;29;114316;-74
2021/10/20 01:44:27;;;;;;;4.50;2.53;;;;;;;19.06;57.22;100875.28;4833901;29;113873;-73
2021/10/20 01:46:54;;;;;;;4.30;2.55;;;;;;;19.06;57.50;100869.94;4833505;29;124762;-73
2021/10/20 01:49:21;;;;;;;3.92;2.42;;;;;;;19.06;57.56;100864.56;4835664;29;123864;-73
2021/10/20 01:51:48;;;;;;;4.20;2.47;;;;;;;19.08;57.63;100867.13;4836000;29;114371;-73
2021/10/20 01:54:15;;;;;;;4.18;2.50;;;;;;;19.06;57.36;100864.56;4837308;29;114845;-73
2021/10/20 01:56:43;;;;;;;3.72;2.30;;;;;;;19.07;57.43;100863.59;4834547;29;124439;-74
2021/10/20 01:59:10;;;;;;;3.78;2.47;;;;;;;19.08;57.34;100851.91;4837581;29;123943;-74
2021/10/20 02:01:37;;;;;;;3.78;2.50;;;;;;;19.09;57.30;100864.31;4836859;29;114718;-74
2021/10/20 02:04:12;;;;;;;3.88;2.35;;;;;;;19.09;57.63;100856.28;4838681;29;114167;-74
2021/10/20 02:06:41;;;;;;;3.65;2.50;;;;;;;19.10;57.56;100860.69;4830772;29;124034;-74
2021/10/20 02:09:11;;;;;;;6.03;2.50;;;;;;;19.10;57.26;100855.31;4821015;29;122300;-74
2021/10/20 02:11:41;;;;;;;5.13;2.83;;;;;;;19.09;57.55;100848.22;4836303;29;113649;-73
2021/10/20 02:14:10;;;;;;;3.45;2.33;;;;;;;19.10;57.31;100839.19;4835030;29;114327;-74
2021/10/20 02:16:39;;;;;;;3.15;2.20;;;;;;;19.09;57.18;100832.09;4837227;29;123989;-74
2021/10/20 02:19:07;;;;;;;3.80;2.30;;;;;;;19.11;57.11;100840.03;4834295;29;124583;-74
2021/10/20 02:21:35;;;;;;;3.85;2.60;;;;;;;19.12;57.24;100829.19;4836492;29;113232;-74
2021/10/20 02:24:02;;;;;;;5.05;2.28;;;;;;;19.12;57.30;100821.13;4837854;29;114903;-74
2021/10/20 02:26:29;;;;;;;4.00;2.38;;;;;;;19.12;57.25;100823.81;4835778;29;124594;-74
2021/10/20 02:28:56;;;;;;;4.15;2.53;;;;;;;19.12;56.94;100821.13;4837613;29;124055;-74
2021/10/20 02:31:23;;;;;;;4.80;2.50;;;;;;;19.13;57.31;100828.19;4838014;29;113999;-74
2021/10/20 02:33:50;;;;;;;3.45;2.28;;;;;;;19.13;57.20;100833.56;4835783;29;113356;-74
2021/10/20 02:36:17;;;;;;;5.82;2.65;;;;;;;19.14;57.26;100819.16;4830701;29;123760;-74
2021/10/20 02:38:44;;;;;;;4.13;2.35;;;;;;;19.15;57.17;100820.84;4833560;29;123077;-74
2021/10/20 02:41:12;;;;;;;5.68;2.67;;;;;;;19.16;57.29;100811.84;4836719;29;116223;-74
2021/10/20 02:43:39;;;;;;;4.28;2.30;;;;;;;19.16;57.20;100817.22;4848929;29;114719;-75
2021/10/20 02:46:07;;;;;;;3.85;2.40;;;;;;;19.18;57.15;100792.94;4837434;29;124123;-74
2021/10/20 02:48:34;;;;;;;5.90;2.78;;;;;;;19.20;57.04;100805.22;4836851;29;123950;-74
2021/10/20 02:51:01;;;;;;;4.68;2.80;;;;;;;19.21;57.08;100804.28;4836150;29;114577;-75
2021/10/20 02:53:28;;;;;;;5.88;2.50;;;;;;;19.22;57.16;100799.75;4834711;29;114836;-74
2021/10/20 02:55:55;;;;;;;4.07;2.63;;;;;;;19.25;57.11;100810.25;4837323;29;124265;-74
2021/10/20 02:58:23;;;;;;;4.55;2.65;;;;;;;19.26;56.98;100807.41;4836564;29;123430;-74
2021/10/20 03:00:50;;;;;;;5.10;2.85;;;;;;;19.29;57.06;100794.69;4834063;29;113330;-74
2021/10/20 03:03:17;;;;;;;4.85;2.60;;;;;;;19.29;56.77;100794.69;4836597;29;114747;-74
2021/10/20 03:05:44;;;;;;;5.13;2.60;;;;;;;19.29;56.77;100789.34;4836184;29;123868;-74
2021/10/20 03:08:11;;;;;;;6.00;3.00;;;;;;;19.30;56.91;100791.91;4851498;29;124809;-74
2021/10/20 03:10:39;;;;;;;3.83;2.40;;;;;;;19.31;56.74;100787.38;4835339;29;114121;-74
2021/10/20 03:13:07;;;;;;;4.45;2.55;;;;;;;19.32;56.96;100789.09;4835868;29;113929;-74
2021/10/20 03:15:35;;;;;;;4.70;2.85;;;;;;;19.32;56.84;100786.41;4835003;29;123954;-75
2021/10/20 03:18:02;;;;;;;3.55;2.70;;;;;;;19.33;56.70;100785.44;4836887;29;124747;-74
2021/10/20 03:20:29;;;;;;;3.85;2.50;;;;;;;19.34;56.79;100787.13;4836544;29;113866;-74
2021/10/20 03:22:56;;;;;;;4.80;2.70;;;;;;;19.33;56.86;100774.69;4833725;29;113774;-74
2021/10/20 03:25:23;;;;;;;4.15;2.72;;;;;;;19.33;56.71;100780.06;4833840;29;123751;-75
2021/10/20 03:27:51;;;;;;;6.78;2.72;;;;;;;19.34;56.79;100771.00;4832395;29;123920;-74
2021/10/20 03:30:20;;;;;;;4.50;2.67;;;;;;;19.33;56.76;100758.59;4834412;29;114468;-74
2021/10/20 03:32:48;;;;;;;4.53;2.63;;;;;;;19.34;56.76;100760.28;4835518;29;114873;-74
2021/10/20 03:35:16;;;;;;;7.00;2.88;;;;;;;19.34;56.73;100760.28;4847353;29;123323;-74
2021/10/20 03:37:44;;;;;;;4.68;2.70;;;;;;;19.33;56.77;100743.31;4836855;29;123528;-74
2021/10/20 03:40:11;;;;;;;4.88;3.05;;;;;;;19.32;56.68;100746.13;4850116;29;114606;-73
2021/10/20 03:42:38;;;;;;;3.45;2.70;;;;;;;19.32;56.83;100751.50;4836399;29;114729;-74
2021/10/20 03:45:06;;;;;;;3.72;2.67;;;;;;;19.31;56.85;100757.84;4849325;29;123931;-74
2021/10/20 03:47:33;;;;;;;5.65;3.47;;;;;;;19.32;56.84;100751.50;4836770;29;122720;-74
2021/10/20 03:50:01;;;;;;;4.93;2.90;;;;;;;19.33;56.66;100761.28;4836707;29;114240;-74
2021/10/20 03:52:28;;;;;;;3.65;2.70;;;;;;;19.34;57.00;100765.66;4836784;29;113796;-75
2021/10/20 03:54:55;;;;;;;3.95;2.50;;;;;;;19.35;56.85;100767.38;4836174;29;124167;-74
2021/10/20 03:57:22;;;;;;;3.63;2.72;;;;;;;19.35;56.81;100756.63;4835266;29;123663;-74
2021/10/20 03:59:49;;;;;;;6.88;2.80;;;;;;;19.37;56.63;100749.28;4835410;29;114428;-74
2021/10/20 04:02:16;;;;;;;4.68;2.95;;;;;;;19.36;56.61;100747.56;4834937;29;113280;-74
2021/10/20 04:04:43;;;;;;;5.28;2.70;;;;;;;19.37;56.71;100749.28;4835220;29;123783;-74
2021/10/20 04:07:10;;;;;;;6.25;3.10;;;;;;;19.37;57.03;100749.28;4836330;29;125771;-74
2021/10/20 04:09:37;;;;;;;4.63;2.95;;;;;;;19.37;56.63;100734.00;4834706;29;113283;-74
2021/10/20 04:12:05;;;;;;;4.22;2.95;;;;;;;19.39;56.83;100733.88;4835000;29;113941;-74
2021/10/20 04:14:32;;;;;;;4.13;2.85;;;;;;;19.39;56.69;100729.38;4833892;29;123832;-75
2021/10/20 04:16:59;;;;;;;4.60;3.13;;;;;;;19.40;56.85;100722.16;4836034;29;124153;-74
2021/10/20 04:19:26;;;;;;;4.60;2.88;;;;;;;19.42;56.73;100712.13;4834537;29;114983;-74
2021/10/20 04:21:53;;;;;;;4.40;3.08;;;;;;;19.43;56.68;100705.78;4850468;29;115468;-74
2021/10/20 04:24:20;;;;;;;4.05;2.97;;;;;;;19.47;56.72;100709.06;4833432;29;124117;-73
2021/10/20 04:26:47;;;;;;;7.60;3.33;;;;;;;19.49;56.78;100699.88;4833901;29;123877;-74
2021/10/20 04:29:14;;;;;;;4.78;2.95;;;;;;;19.52;56.83;100694.25;4858837;23;114410;-71
2021/10/20 04:31:41;;;;;;;5.18;3.22;;;;;;;19.53;56.74;100701.31;4854983;29;114156;-72
2021/10/20 04:34:10;;;;;;;5.18;2.90;;;;;;;19.57;56.64;100696.53;4853872;28;123104;-71
2021/10/20 04:36:37;;;;;;;4.38;2.88;;;;;;;19.59;56.57;100695.44;4851112;29;122908;-71
2021/10/20 04:39:04;;;;;;;6.07;3.28;;;;;;;19.61;56.41;100677.34;4852758;29;114032;-71
2021/10/20 04:41:31;;;;;;;5.90;3.15;;;;;;;19.62;56.35;100676.34;4851872;29;113889;-71
2021/10/20 04:43:58;;;;;;;4.82;3.25;;;;;;;19.62;56.43;100684.41;4850514;29;123780;-71
2021/10/20 04:46:25;;;;;;;4.93;3.17;;;;;;;19.63;56.52;100677.22;4853731;28;122653;-72
2021/10/20 04:48:52;;;;;;;4.40;2.95;;;;;;;19.64;56.40;100674.38;4854509;29;114090;-72
2021/10/20 04:51:19;;;;;;;6.70;3.00;;;;;;;19.65;56.40;100661.81;4851320;29;113931;-72
2021/10/20 04:53:46;;;;;;;6.05;2.95;;;;;;;19.67;56.33;100675.13;4851906;29;124418;-71
2021/10/20 04:56:13;;;;;;;3.63;2.70;;;;;;;19.67;56.24;100669.75;4847802;29;122414;-71
2021/10/20 04:58:40;;;;;;;5.78;3.05;;;;;;;19.65;56.18;100662.66;4844384;29;113639;-71
2021/10/20 05:01:07;;;;;;;5.18;3.20;;;;;;;19.64;55.99;100655.59;4852169;29;114037;-71
2021/10/20 05:03:35;;;;;;;5.68;3.13;;;;;;;19.63;56.01;100653.91;4851872;29;124055;-71
2021/10/20 05:06:02;;;;;;;6.80;3.85;;;;;;;19.62;56.00;100636.06;4861312;28;123706;-71
2021/10/20 05:08:29;;;;;;;5.30;2.95;;;;;;;19.61;55.81;100634.38;4844279;29;115326;-70
2021/10/20 05:10:57;;;;;;;6.72;3.40;;;;;;;19.59;56.05;100630.97;4852402;29;115894;-72
2021/10/20 05:13:25;;;;;;;4.53;3.20;;;;;;;19.59;55.88;100614.84;4830817;29;123559;-71
2021/10/20 05:15:52;;;;;;;5.38;3.20;;;;;;;19.56;55.85;100609.72;4850269;29;122677;-71
2021/10/20 05:18:20;;;;;;;4.43;3.47;;;;;;;19.56;55.92;100598.16;4846867;28;113524;-71
2021/10/20 05:20:47;;;;;;;4.50;3.10;;;;;;;19.54;56.05;100609.00;4833712;29;113271;-71
2021/10/20 05:23:16;;;;;;;4.70;3.15;;;;;;;19.54;56.02;100617.06;4852868;29;124777;-71
2021/10/20 05:25:43;;;;;;;5.03;3.10;;;;;;;19.51;56.10;100611.97;4856578;29;122995;-71
2021/10/20 05:28:10;;;;;;;5.90;3.38;;;;;;;19.50;55.88;100615.66;4853282;29;114827;-70
2021/10/20 05:30:38;;;;;;;4.32;3.00;;;;;;;19.49;55.88;100608.56;4851515;29;113806;-71
2021/10/20 05:33:05;;;;;;;5.10;3.40;;;;;;;19.47;55.90;100591.72;4836473;29;122989;-71
2021/10/20 05:35:32;;;;;;;5.45;3.65;;;;;;;19.47;55.95;100599.78;4854898;29;124345;-71
2021/10/20 05:37:59;;;;;;;7.15;3.38;;;;;;;19.45;55.75;100591.00;4851492;28;113219;-71
2021/10/20 05:40:27;;;;;;;4.55;3.33;;;;;;;19.46;55.98;100598.09;4850385;29;113844;-72
2021/10/20 05:42:56;;;;;;;8.35;3.28;;;;;;;19.46;56.05;100592.72;4855282;29;124451;-71
2021/10/20 05:45:23;;;;;;;6.35;3.40;;;;;;;19.45;56.06;100585.63;4854224;29;124616;-72
2021/10/20 05:47:50;;;;;;;6.00;3.42;;;;;;;19.45;56.04;100585.63;4856493;29;114544;-72
2021/10/20 05:50:17;;;;;;;6.20;3.25;;;;;;;19.44;56.08;100583.94;4852906;28;113329;-72
2021/10/20 05:52:45;;;;;;;5.10;3.50;;;;;;;19.44;55.80;100583.94;4850728;29;123881;-73
2021/10/20 05:55:12;;;;;;;4.93;3.40;;;;;;;19.44;56.00;100578.56;4852762;29;123018;-72
2021/10/20 05:57:40;;;;;;;5.05;3.45;;;;;;;19.44;55.88;100578.56;4831238;29;114615;-71
2021/10/20 06:00:10;;;;;;;6.85;3.53;;;;;;;19.43;56.02;100582.22;4853308;29;114629;-71
2021/10/20 06:02:40;;;;;;;5.57;3.33;;;;;;;19.44;56.01;100578.56;4844518;29;124044;-72
2021/10/20 06:05:08;;;;;;;4.75;3.13;;;;;;;19.43;56.08;100569.66;4835114;29;122835;-71
2021/10/20 06:07:40;;;;;;;5.45;3.63;;;;;;;19.44;56.28;100573.22;4852513;29;113228;-71
2021/10/20 06:10:09;;;;;;;5.10;3.28;;;;;;;19.45;56.02;100537.28;4851348;28;114066;-72
2021/10/20 06:12:36;;;;;;;6.88;3.60;;;;;;;19.44;55.95;100530.22;4846206;29;123853;-71
2021/10/20 06:15:06;;;;;;;5.90;3.50;;;;;;;19.44;55.89;100530.22;4839027;29;124003;-71
2021/10/20 06:17:51;;;;;;;4.55;3.08;;;;;;;19.44;56.04;100524.88;4855193;28;114799;-74
2021/10/20 06:20:18;;;;;;;5.10;3.47;;;;;;;19.44;55.99;100527.53;4857128;29;113852;-73
2021/10/20 06:22:45;;;;;;;6.95;3.38;;;;;;;19.44;56.00;100519.50;4847498;29;123896;-72
2021/10/20 06:25:13;;;;;;;5.30;3.42;;;;;;;19.43;55.99;100513.25;4853349;29;123693;-72
2021/10/20 06:27:40;;;;;;;7.38;3.70;;;;;;;19.44;56.00;100514.13;4857795;29;113968;-71
2021/10/20 06:30:08;;;;;;;6.85;3.78;;;;;;;19.45;56.06;100521.16;4856314;28;113221;-71
2021/10/20 06:32:35;;;;;;;7.13;3.40;;;;;;;19.44;56.27;100538.28;4850933;29;123049;-72
2021/10/20 06:35:03;;;;;;;4.60;3.35;;;;;;;19.46;56.32;100539.00;4847081;29;123575;-71
2021/10/20 06:37:30;;;;;;;4.85;3.38;;;;;;;19.47;56.25;100532.63;4846749;29;114053;-72
2021/10/20 06:40:00;;;;;;;5.68;3.47;;;;;;;19.47;56.42;100535.31;4867444;28;113077;-72
2021/10/20 06:42:28;;;;;;;5.10;3.55;;;;;;;19.48;56.49;100547.78;4853542;28;123248;-71
2021/10/20 06:44:56;;;;;;;6.55;3.35;;;;;;;19.50;56.38;100540.44;4851268;29;123011;-72
2021/10/20 06:47:25;;;;;;;5.20;3.60;;;;;;;19.51;56.50;100536.75;4857029;29;115237;-72
2021/10/20 06:49:52;;;;;;;4.60;3.03;;;;;;;19.54;56.61;100535.66;4850549;29;114971;-71
2021/10/20 06:52:19;;;;;;;5.85;3.67;;;;;;;19.55;56.61;100527.44;4849679;29;124322;-72
2021/10/20 06:54:47;;;;;;;5.13;3.65;;;;;;;19.56;56.43;100526.44;4847743;29;124831;-72
2021/10/20 06:57:15;;;;;;;5.03;3.15;;;;;;;19.57;56.36;100536.22;4857147;29;114096;-72
2021/10/20 06:59:43;;;;;;;5.28;3.28;;;;;;;19.58;56.55;100537.91;4855193;29;113689;-71
2021/10/20 07:02:10;;;;;;;6.22;3.22;;;;;;;19.61;56.65;100553.78;4845144;29;124191;-72
2021/10/20 07:04:37;;;;;;;5.30;3.17;;;;;;;19.63;56.67;100550.94;4849837;29;123739;-72
2021/10/20 07:07:09;;;;;;;5.22;3.75;;;;;;;19.63;56.25;100567.91;4839807;28;113283;-72
2021/10/20 07:09:37;;;;;;;6.78;3.70;;;;;;;19.64;56.67;100574.13;4856081;29;113988;-72
2021/10/20 07:12:04;;;;;;;4.60;3.42;;;;;;;19.64;56.64;100574.97;4855629;29;124410;-73
2021/10/20 07:14:31;;;;;;;5.43;3.60;;;;;;;19.67;56.53;100567.66;4856882;29;124695;-72
2021/10/20 07:16:58;;;;;;;5.50;3.05;;;;;;;19.68;56.63;100569.34;4855846;29;114301;-72
2021/10/20 07:19:27;;;;;;;6.53;3.30;;;;;;;19.69;56.69;100571.06;4855667;29;116274;-72
2021/10/20 07:21:54;;;;;;;4.72;3.58;;;;;;;19.70;56.73;100556.63;4856003;29;124004;-72
2021/10/20 07:24:21;;;;;;;4.82;3.15;;;;;;;19.69;56.62;100538.81;4851527;29;123691;-71
2021/10/20 07:26:50;;;;;;;6.20;3.63;;;;;;;19.71;56.62;100531.47;4855187;29;114509;-71
2021/10/20 07:29:17;;;;;;;4.85;3.30;;;;;;;19.73;56.77;100524.16;4856499;29;114640;-72
2021/10/20 07:31:44;;;;;;;4.43;3.50;;;;;;;19.73;56.68;100516.09;4850578;29;125547;-73
2021/10/20 07:34:12;;;;;;;5.47;3.30;;;;;;;19.74;56.61;100482.84;4855049;29;123424;-72
2021/10/20 07:36:39;;;;;;;5.53;3.30;;;;;;;19.77;56.78;100466.44;4854200;29;115192;-72
2021/10/20 07:39:06;;;;;;;5.53;3.33;;;;;;;19.77;56.76;100444.94;4854609;29;115142;-72
2021/10/20 07:41:33;;;;;;;5.00;3.83;;;;;;;19.79;56.82;100459.09;4854177;29;123198;-72
2021/10/20 07:44:01;;;;;;;4.57;3.38;;;;;;;19.78;56.90;100442.13;4855490;29;123957;-71
2021/10/20 07:46:29;;;;;;;5.15;3.22;;;;;;;19.78;56.98;100463.63;4846031;29;114606;-72
2021/10/20 07:48:56;;;;;;;4.32;3.20;;;;;;;19.77;56.95;100444.94;4842616;29;113797;-72
2021/10/20 07:51:23;;;;;;;4.75;3.30;;;;;;;19.77;57.10;100451.16;4840955;29;123884;-72
2021/10/20 07:53:50;;;;;;;4.95;3.65;;;;;;;19.75;57.19;100404.78;4855184;29;123127;-72
2021/10/20 07:56:17;;;;;;;4.88;3.53;;;;;;;19.74;57.43;100402.22;4856149;29;114210;-72
2021/10/20 07:58:44;;;;;;;5.72;3.85;;;;;;;19.71;57.33;100387.22;4854797;29;114130;-72
2021/10/20 08:01:12;;;;;;;5.72;3.75;;;;;;;19.69;57.46;100382.97;4826976;29;123288;-72
2021/10/20 08:03:39;;;;;;;6.10;3.67;;;;;;;19.67;57.63;100363.47;4843673;29;123826;-72
2021/10/20 08:06:06;;;;;;;5.35;4.10;;;;;;;19.65;57.56;100328.66;4842217;28;113458;-71
2021/10/20 08:08:33;;;;;;;6.40;3.83;;;;;;;19.64;57.74;100327.78;4854988;29;113750;-71
2021/10/20 08:11:00;;;;;;;8.25;4.15;;;;;;;19.63;57.85;100350.28;4855735;29;124045;-71
2021/10/20 08:13:28;;;;;;;5.43;3.80;;;;;;;19.65;57.92;100356.38;4855663;29;123919;-72
2021/10/20 08:15:55;;;;;;;6.18;3.72;;;;;;;19.69;58.20;100356.94;4853955;28;113105;-71
2021/10/20 08:18:24;;;;;;;6.20;4.10;;;;;;;19.72;58.13;100356.72;4844407;29;113767;-71
2021/10/20 08:20:51;;;;;;;6.85;3.80;;;;;;;19.75;58.23;100371.69;4855868;29;124336;-72
2021/10/20 08:23:19;;;;;;;6.22;3.83;;;;;;;19.80;58.06;100374.81;4852644;29;124729;-71
2021/10/20 08:25:46;;;;;;;6.18;4.13;;;;;;;19.82;58.25;100372.84;4856759;29;115271;-72
2021/10/20 08:28:13;;;;;;;5.63;3.72;;;;;;;19.86;57.96;100374.25;4859406;29;115061;-71
2021/10/20 08:30:43;;;;;;;5.50;3.70;;;;;;;19.86;58.00;100389.53;4859526;29;124047;-72
2021/10/20 08:33:10;;;;;;;5.72;3.58;;;;;;;19.86;58.04;100385.00;4852065;29;125474;-71
2021/10/20 08:35:37;;;;;;;6.07;3.88;;;;;;;19.85;57.99;100367.16;4853698;29;113964;-71
2021/10/20 08:38:05;;;;;;;5.55;3.70;;;;;;;19.88;57.94;100366.88;4839110;29;113669;-72
2021/10/20 08:40:37;;;;;;;6.78;3.90;;;;;;;19.90;57.83;100375.66;4855683;29;123845;-71
2021/10/20 08:43:05;;;;;;;7.65;4.07;;;;;;;19.90;57.90;100359.53;4850797;29;124095;-72
2021/10/20 08:45:32;;;;;;;6.88;3.65;;;;;;;19.93;57.98;100369.13;4858851;29;114887;-72
2021/10/20 08:48:00;;;;;;;7.18;3.80;;;;;;;19.96;57.79;100364.34;4856564;29;114047;-71
2021/10/20 08:50:30;;;;;;;5.95;4.00;;;;;;;19.98;57.92;100359.66;4855714;29;123998;-71
2021/10/20 08:52:57;;;;;;;6.32;3.75;;;;;;;20.01;57.83;100354.00;4854679;29;124016;-72
2021/10/20 08:55:25;;;;;;;5.10;3.75;;;;;;;20.05;57.75;100388.69;4854058;29;114492;-71
2021/10/20 08:57:54;;;;;;;5.13;3.80;;;;;;;20.07;57.90;100375.94;4856717;29;114371;-72
2021/10/20 09:00:22;;;;;;;6.13;3.97;;;;;;;20.08;57.85;100383.88;4860985;29;124269;-71
2021/10/20 09:02:50;;;;;;;6.85;3.58;;;;;;;20.09;57.87;100380.19;4859400;29;123462;-72
2021/10/20 09:05:23;;;;;;;5.90;3.95;;;;;;;20.08;57.91;100377.63;4846941;29;115798;-71
2021/10/20 09:07:53;;;;;;;5.35;4.07;;;;;;;20.08;57.84;100383.00;4842489;29;113184;-72
2021/10/20 09:10:23;;;;;;;6.75;4.10;;;;;;;20.09;58.06;100388.25;4852313;28;123698;-71
2021/10/20 09:12:54;;;;;;;5.43;3.97;;;;;;;20.12;58.10;100368.31;4859297;29;123319;-70
2021/10/20 09:15:24;;;;;;;7.03;3.85;;;;;;;20.13;57.90;100378.06;4862806;29;114945;-72
2021/10/20 09:17:58;;;;;;;5.72;4.00;;;;;;;20.14;57.93;100382.47;4858325;28;112870;-72
2021/10/20 09:20:46;;;;;;;6.90;4.00;;;;;;;20.13;58.10;100381.59;4857768;29;124816;-73
2021/10/20 09:23:14;;;;;;;8.30;3.88;;;;;;;20.16;57.87;100375.09;4855944;29;123896;-73
2021/10/20 09:25:58;;;;;;;6.03;3.70;;;;;;;20.16;58.06;100364.34;4854928;28;113682;-75
2021/10/20 09:28:27;;;;;;;5.33;3.90;;;;;;;20.18;58.01;100367.72;4843611;28;114844;-72
2021/10/20 09:31:01;;;;;;;4.88;3.78;;;;;;;20.20;58.12;100355.00;4857103;29;123855;-71
2021/10/20 09:33:29;;;;;;;6.43;4.20;;;;;;;20.22;58.05;100358.38;4857941;29;123795;-70
2021/10/20 09:36:02;;;;;;;5.20;3.88;;;;;;;20.22;57.98;100347.63;4868279;29;114950;-71
2021/10/20 09:38:36;;;;;;;5.97;3.95;;;;;;;20.27;58.01;100366.00;4872197;29;114888;-72
2021/10/20 09:41:06;;;;;;;6.47;3.77;;;;;;;20.29;57.92;100359.50;4860529;29;124657;-71
2021/10/20 09:43:42;;;;;;;5.32;3.92;;;;;;;20.33;58.09;100360.91;4857552;29;124273;-71
2021/10/20 09:46:10;;;;;;;6.13;4.22;;;;;;;20.38;57.90;100358.66;4858494;29;114137;-71
2021/10/20 09:48:41;;;;;;;6.95;3.90;;;;;;;20.43;58.01;100350.97;4859495;28;112966;-72
2021/10/20 09:51:11;;;;;;;5.78;4.32;;;;;;;20.50;58.11;100350.41;4853748;29;124765;-71
2021/10/20 09:53:40;;;;;;;6.25;4.35;;;;;;;20.57;57.88;100351.53;4857352;29;123586;-72
2021/10/20 09:56:30;;;;;;;5.43;4.18;;;;;;;20.64;57.84;100346.44;4851183;29;114933;-72
2021/10/20 09:58:58;;;;;;;6.50;3.70;;;;;;;20.72;58.00;100339.31;4841158;28;113119;-71
2021/10/20 10:01:27;;;;;;;6.25;3.95;;;;;;;20.82;58.03;100333.06;4841790;29;123688;-71
2021/10/20 10:03:57;;;;;;;6.55;4.15;;;;;;;20.92;57.84;100333.84;4840855;29;124167;-72
2021/10/20 10:06:24;;;;;;;5.63;3.90;;;;;;;21.04;58.03;100348.81;4848844;29;115595;-72
2021/10/20 10:08:51;;;;;;;6.13;4.10;;;;;;;21.15;57.92;100335.16;4831455;29;114527;-72
2021/10/20 10:11:18;;;;;;;5.93;3.90;;;;;;;21.29;57.77;100341.03;4851767;29;125066;-72
2021/10/20 10:13:50;;;;;;;6.30;3.97;;;;;;;21.39;57.36;100333.72;4834410;29;122902;-71
2021/10/20 10:16:21;;;;;;;4.88;3.65;;;;;;;21.46;57.33;100337.53;4848837;29;114535;-71
2021/10/20 10:18:52;;;;;;;4.75;3.58;;;;;;;21.52;57.16;100336.94;4854687;28;114610;-72
2021/10/20 10:21:34;;;;;;;5.50;3.95;;;;;;;21.58;56.98;100339.00;4851251;29;122113;-71
2021/10/20 10:24:08;;;;;;;5.43;3.88;;;;;;;21.62;56.65;100325.22;4849957;29;124630;-70
2021/10/20 10:26:37;;;;;;;5.68;3.53;;;;;;;21.63;56.33;100326.94;4851970;29;114086;-71
2021/10/20 10:29:09;;;;;;;4.97;3.53;;;;;;;21.64;56.52;100339.41;4856462;28;113967;-71
2021/10/20 10:31:42;;;;;;;6.40;4.35;;;;;;;21.66;56.36;100332.00;4854403;29;124196;-71
2021/10/20 10:34:39;;;;;;;6.18;3.67;;;;;;;21.65;56.25;100335.72;4842158;29;123973;-71
2021/10/20 10:37:06;;;;;;;5.10;3.90;;;;;;;21.65;56.29;100338.41;4838382;29;114936;-72
2021/10/20 10:39:34;;;;;;;5.03;3.60;;;;;;;21.65;56.22;100333.03;4844496;28;114247;-71
2021/10/20 10:42:04;;;;;;;4.63;3.30;;;;;;;21.64;56.19;100328.63;4845329;29;124490;-71
2021/10/20 10:44:45;;;;;;;5.65;3.80;;;;;;;21.62;56.13;100318.00;4839482;29;123895;-71
2021/10/20 10:47:25;;;;;;;5.47;3.80;;;;;;;21.62;55.84;100319.84;4852592;29;114532;-71
2021/10/20 10:49:54;;;;;;;4.22;3.30;;;;;;;21.57;55.83;100323.84;4841630;28;114244;-71
2021/10/20 10:52:33;;;;;;;6.68;3.90;;;;;;;21.55;55.91;100325.84;4844337;29;124139;-71
2021/10/20 10:55:20;;;;;;;5.38;3.45;;;;;;;21.50;55.95;100322.75;4850078;28;124337;-71
2021/10/20 10:57:58;;;;;;;5.28;3.20;;;;;;;21.47;55.70;100314.97;4856529;29;115840;-71
2021/10/20 11:00:29;;;;;;;4.65;3.40;;;;;;;21.45;55.76;100319.66;4853572;29;114359;-70
2021/10/20 11:03:18;;;;;;;5.68;3.70;;;;;;;21.42;55.76;100309.19;4855427;29;123973;-71
2021/10/20 11:05:54;;;;;;;5.32;3.42;;;;;;;21.37;55.81;100308.78;4841398;28;123571;-72
2021/10/20 11:08:22;;;;;;;5.10;3.58;;;;;;;21.36;55.85;100317.84;4830723;29;113978;-71
2021/10/20 11:10:51;;;;;;;5.55;3.75;;;;;;;21.34;55.93;100295.63;4855321;29;112873;-71
2021/10/20 11:13:18;;;;;;;4.68;3.60;;;;;;;21.34;55.85;100298.31;4850085;29;123830;-71
2021/10/20 11:15:47;;;;;;;5.75;3.90;;;;;;;21.32;55.88;100298.47;4848057;29;124333;-69
2021/10/20 11:18:15;;;;;;;5.25;3.78;;;;;;;21.31;55.94;100301.31;4842262;29;114286;-70
2021/10/20 11:20:43;;;;;;;6.03;3.60;;;;;;;21.32;55.88;100289.53;4850005;29;114209;-70
2021/10/20 11:23:14;;;;;;;5.82;4.20;;;;;;;21.30;56.06;100305.84;4853473;29;123760;-70